createdAt,value
2018-07-31T00:02:10.242Z,9.83
2018-07-31T00:04:39.108Z,10.60
2018-07-31T00:07:07.927Z,10.30
2018-07-31T00:09:36.747Z,9.53
2018-07-31T00:12:05.597Z,10.37
2018-07-31T00:14:34.398Z,8.57
2018-07-31T00:17:03.258Z,8.27
2018-07-31T00:19:32.073Z,8.40
2018-07-31T00:22:01.296Z,9.90
2018-07-31T00:24:30.196Z,9.20
2018-07-31T00:26:59.026Z,10.07
2018-07-31T00:29:27.799Z,10.80
2018-07-31T00:31:56.585Z,9.30
2018-07-31T00:34:25.417Z,8.73
2018-07-31T00:36:54.403Z,8.63
2018-07-31T00:39:23.190Z,10.27
2018-07-31T00:41:51.956Z,10.90
2018-07-31T00:44:20.766Z,8.07
2018-07-31T00:46:49.581Z,9.57
2018-07-31T00:49:18.436Z,8.53
2018-07-31T00:51:47.383Z,7.77
2018-07-31T00:54:16.270Z,16.27
2018-07-31T00:56:45.151Z,8.23
2018-07-31T00:59:13.969Z,10.27
2018-07-31T01:01:42.812Z,10.13
2018-07-31T01:04:11.559Z,10.03
2018-07-31T01:06:42.318Z,10.57
2018-07-31T01:09:12.509Z,9.23
2018-07-31T01:11:41.422Z,8.13
2018-07-31T01:14:10.842Z,7.30
2018-07-31T01:16:41.271Z,8.80
2018-07-31T01:19:11.093Z,9.67
2018-07-31T01:21:40.383Z,8.03
2018-07-31T01:24:09.820Z,19.23
2018-07-31T01:26:38.576Z,8.47
2018-07-31T01:29:07.386Z,9.97
2018-07-31T01:31:36.562Z,9.50
2018-07-31T01:34:05.475Z,7.87
2018-07-31T01:36:34.279Z,14.33
2018-07-31T01:39:03.095Z,7.87
2018-07-31T01:41:31.944Z,7.80
2018-07-31T01:44:00.705Z,8.17
2018-07-31T01:46:29.611Z,7.40
2018-07-31T01:48:58.377Z,6.97
2018-07-31T01:51:27.198Z,7.20
2018-07-31T01:53:55.965Z,7.57
2018-07-31T01:56:24.793Z,7.67
2018-07-31T01:58:53.527Z,10.00
2018-07-31T02:01:22.317Z,9.40
2018-07-31T02:03:51.228Z,10.50
2018-07-31T02:06:24.340Z,7.40
2018-07-31T02:08:53.777Z,8.57
2018-07-31T02:11:22.593Z,6.97
2018-07-31T02:13:51.933Z,9.47
2018-07-31T02:16:20.724Z,7.47
2018-07-31T02:18:49.637Z,9.30
2018-07-31T02:21:18.466Z,7.33
2018-07-31T02:23:47.249Z,7.50
2018-07-31T02:26:16.070Z,7.20
2018-07-31T02:28:44.897Z,8.47
2018-07-31T02:31:14.212Z,8.23
2018-07-31T02:33:43.020Z,9.97
2018-07-31T02:36:12.638Z,7.93
2018-07-31T02:38:41.475Z,8.77
2018-07-31T02:41:10.354Z,8.07
2018-07-31T02:43:39.146Z,8.30
2018-07-31T02:46:08.031Z,9.17
2018-07-31T02:48:36.938Z,12.70
2018-07-31T02:51:05.761Z,12.13
2018-07-31T02:53:34.593Z,8.80
2018-07-31T02:56:03.345Z,11.57
2018-07-31T02:58:33.726Z,10.60
2018-07-31T03:01:02.628Z,9.90
2018-07-31T03:03:31.526Z,9.03
2018-07-31T03:06:00.423Z,8.87
2018-07-31T03:08:29.200Z,9.97
2018-07-31T03:10:57.963Z,13.37
2018-07-31T03:13:26.866Z,9.87
2018-07-31T03:15:55.620Z,9.07
2018-07-31T03:18:24.484Z,10.53
2018-07-31T03:20:53.445Z,11.63
2018-07-31T03:23:22.247Z,10.20
2018-07-31T03:25:51.027Z,12.27
2018-07-31T03:28:19.844Z,13.03
2018-07-31T03:30:48.823Z,15.37
2018-07-31T03:33:17.610Z,12.60
2018-07-31T03:35:46.422Z,13.97
2018-07-31T03:38:20.612Z,11.03
2018-07-31T03:41:00.660Z,12.83
2018-07-31T03:43:33.313Z,10.43
2018-07-31T03:46:02.113Z,11.33
2018-07-31T03:48:30.912Z,11.33
2018-07-31T03:50:59.786Z,13.23
2018-07-31T03:53:28.581Z,10.83
2018-07-31T03:55:57.406Z,13.10
2018-07-31T03:58:26.305Z,18.17
2018-07-31T04:00:55.181Z,11.07
2018-07-31T04:03:23.999Z,20.90
2018-07-31T04:05:52.793Z,13.40
2018-07-31T04:08:21.745Z,13.43
2018-07-31T04:10:50.721Z,12.40
2018-07-31T04:13:19.481Z,12.27
2018-07-31T04:15:48.643Z,11.60
2018-07-31T04:18:17.413Z,12.90
2018-07-31T04:20:46.291Z,11.40
2018-07-31T04:23:15.134Z,12.63
2018-07-31T04:25:43.951Z,13.43
2018-07-31T04:28:12.743Z,10.57
2018-07-31T04:30:41.509Z,10.27
2018-07-31T04:33:10.279Z,9.67
2018-07-31T04:35:39.189Z,14.50
2018-07-31T04:38:08.038Z,12.67
2018-07-31T04:40:36.789Z,9.53
2018-07-31T04:43:05.937Z,10.67
2018-07-31T04:45:35.062Z,10.03
2018-07-31T04:48:03.857Z,9.77
2018-07-31T04:50:32.665Z,9.80
2018-07-31T04:53:01.483Z,10.00
2018-07-31T04:55:30.316Z,12.40
2018-07-31T04:57:59.209Z,14.00
2018-07-31T05:00:28.050Z,8.80
2018-07-31T05:02:56.903Z,10.13
2018-07-31T05:05:25.665Z,10.67
2018-07-31T05:07:54.510Z,12.80
2018-07-31T05:10:23.318Z,9.90
2018-07-31T05:12:52.148Z,10.20
2018-07-31T05:15:20.949Z,21.20
2018-07-31T05:17:49.843Z,9.83
2018-07-31T05:20:19.205Z,12.17
2018-07-31T05:22:48.090Z,10.43
2018-07-31T05:25:17.069Z,10.20
2018-07-31T05:27:46.239Z,12.47
2018-07-31T05:30:15.170Z,10.80
2018-07-31T05:32:44.040Z,12.40
2018-07-31T05:35:13.010Z,13.20
2018-07-31T05:37:41.819Z,14.37
2018-07-31T05:40:11.022Z,12.97
2018-07-31T05:42:39.893Z,11.80
2018-07-31T05:45:08.857Z,19.87
2018-07-31T05:47:37.974Z,19.37
2018-07-31T05:50:07.876Z,16.20
2018-07-31T05:52:37.180Z,13.47
2018-07-31T05:55:06.439Z,14.60
2018-07-31T05:57:35.915Z,22.13
2018-07-31T06:00:06.954Z,14.07
2018-07-31T06:02:35.771Z,12.53
2018-07-31T06:05:05.010Z,16.67
2018-07-31T06:07:33.814Z,15.23
2018-07-31T06:10:02.660Z,16.70
2018-07-31T06:12:31.598Z,17.73
2018-07-31T06:15:00.361Z,13.80
2018-07-31T06:17:29.194Z,19.13
2018-07-31T06:19:58.233Z,16.73
2018-07-31T06:22:27.219Z,15.30
2018-07-31T06:24:56.417Z,13.87
2018-07-31T06:27:25.323Z,16.13
2018-07-31T06:29:54.193Z,12.73
2018-07-31T06:32:24.089Z,13.90
2018-07-31T06:34:52.840Z,11.70
2018-07-31T06:37:21.650Z,18.13
2018-07-31T06:39:50.491Z,12.20
2018-07-31T06:42:19.321Z,13.50
2018-07-31T06:44:48.093Z,10.57
2018-07-31T06:47:16.915Z,13.70
2018-07-31T06:49:45.882Z,20.30
2018-07-31T06:52:14.694Z,13.57
2018-07-31T06:54:43.682Z,15.37
2018-07-31T06:57:12.493Z,11.70
2018-07-31T06:59:41.361Z,15.17
2018-07-31T07:02:10.423Z,10.57
2018-07-31T07:04:39.464Z,13.57
2018-07-31T07:07:08.421Z,10.30
2018-07-31T07:09:37.351Z,17.40
2018-07-31T07:12:06.222Z,12.10
2018-07-31T07:14:35.070Z,13.77
2018-07-31T07:17:03.821Z,13.60
2018-07-31T07:19:32.581Z,10.80
2018-07-31T07:22:01.413Z,9.53
2018-07-31T07:24:30.230Z,14.83
2018-07-31T07:26:59.057Z,9.37
2018-07-31T07:29:27.924Z,21.60
2018-07-31T07:31:56.739Z,9.83
2018-07-31T07:34:25.666Z,8.20
2018-07-31T07:36:54.509Z,12.63
2018-07-31T07:39:23.771Z,9.17
2018-07-31T07:41:55.686Z,12.77
2018-07-31T07:44:24.549Z,11.20
2018-07-31T07:46:53.358Z,8.70
2018-07-31T07:49:22.193Z,18.23
2018-07-31T07:51:51.035Z,8.40
2018-07-31T07:54:19.848Z,8.07
2018-07-31T07:56:49.121Z,10.10
2018-07-31T07:59:17.944Z,10.40
2018-07-31T08:01:46.843Z,10.33
2018-07-31T08:04:15.694Z,10.37
2018-07-31T08:06:44.534Z,11.87
2018-07-31T08:09:13.338Z,10.90
2018-07-31T08:11:42.187Z,13.53
2018-07-31T08:14:10.909Z,13.27
2018-07-31T08:16:39.717Z,14.83
2018-07-31T08:19:08.566Z,14.83
2018-07-31T08:21:37.586Z,11.30
2018-07-31T08:24:06.421Z,13.10
2018-07-31T08:26:35.462Z,16.93
2018-07-31T08:29:04.395Z,13.90
2018-07-31T08:34:10.171Z,10.37
2018-07-31T08:36:39.008Z,13.10
2018-07-31T08:39:09.469Z,11.40
2018-07-31T08:41:38.370Z,12.50
2018-07-31T08:44:07.418Z,11.87
2018-07-31T08:46:36.412Z,14.20
2018-07-31T08:49:05.252Z,9.47
2018-07-31T08:51:34.019Z,13.40
2018-07-31T08:54:02.803Z,9.40
2018-07-31T08:56:31.718Z,10.00
2018-07-31T08:59:00.510Z,11.80
2018-07-31T09:01:29.259Z,11.47
2018-07-31T09:03:58.087Z,12.00
2018-07-31T09:06:27.023Z,11.20
2018-07-31T09:08:55.908Z,15.77
2018-07-31T09:11:24.898Z,10.57
2018-07-31T09:13:53.678Z,11.30
2018-07-31T09:16:22.573Z,9.50
2018-07-31T09:18:51.394Z,10.37
2018-07-31T09:21:20.208Z,9.37
2018-07-31T09:23:48.985Z,12.33
2018-07-31T09:26:17.739Z,7.83
2018-07-31T09:28:46.603Z,9.13
2018-07-31T09:31:15.514Z,10.87
2018-07-31T09:33:44.501Z,8.17
2018-07-31T09:36:13.283Z,11.47
2018-07-31T09:38:42.081Z,12.93
2018-07-31T09:41:10.883Z,14.70
2018-07-31T09:43:39.708Z,9.27
2018-07-31T09:46:08.529Z,11.80
2018-07-31T09:48:37.767Z,9.13
2018-07-31T09:51:06.902Z,9.73
2018-07-31T09:53:35.689Z,9.53
2018-07-31T09:56:04.509Z,9.07
2018-07-31T09:58:33.274Z,11.57
2018-07-31T10:01:07.442Z,9.17
2018-07-31T10:03:36.243Z,16.60
2018-07-31T10:06:05.408Z,11.50
2018-07-31T10:08:34.205Z,11.60
2018-07-31T10:11:03.059Z,7.90
2018-07-31T10:13:32.262Z,8.93
2018-07-31T10:16:01.028Z,12.20
2018-07-31T10:18:29.835Z,11.47
2018-07-31T10:20:58.590Z,9.53
2018-07-31T10:23:27.363Z,10.97
2018-07-31T10:25:56.545Z,9.73
2018-07-31T10:28:25.298Z,12.37
2018-07-31T10:30:54.263Z,10.10
2018-07-31T10:33:23.571Z,9.57
2018-07-31T10:35:52.366Z,13.33
2018-07-31T10:38:21.176Z,11.90
2018-07-31T10:40:49.968Z,12.77
2018-07-31T10:43:18.758Z,10.83
2018-07-31T10:45:47.609Z,13.60
2018-07-31T10:48:16.690Z,11.60
2018-07-31T10:50:45.500Z,13.20
2018-07-31T10:53:14.437Z,16.77
2018-07-31T10:55:43.545Z,13.90
2018-07-31T10:58:12.408Z,12.20
2018-07-31T11:00:41.333Z,9.00
2018-07-31T11:03:10.250Z,12.47
2018-07-31T11:05:39.659Z,11.27
2018-07-31T11:08:08.469Z,14.97
2018-07-31T11:10:37.376Z,24.90
2018-07-31T11:13:06.261Z,11.33
2018-07-31T11:15:35.661Z,12.60
2018-07-31T11:18:04.469Z,10.73
2018-07-31T11:20:33.209Z,12.53
2018-07-31T11:23:02.163Z,12.07
2018-07-31T11:25:31.053Z,12.87
2018-07-31T11:28:00.286Z,10.57
2018-07-31T11:30:29.149Z,13.00
2018-07-31T11:32:57.958Z,7.87
2018-07-31T11:35:27.058Z,9.23
2018-07-31T11:37:55.850Z,8.30
2018-07-31T11:40:24.595Z,8.90
2018-07-31T11:42:53.433Z,11.50
2018-07-31T11:45:22.253Z,11.37
2018-07-31T11:47:51.068Z,12.30
2018-07-31T11:50:19.906Z,13.10
2018-07-31T11:52:48.721Z,8.77
2018-07-31T11:55:17.880Z,10.60
2018-07-31T11:57:46.677Z,8.13
2018-07-31T12:00:15.969Z,13.30
2018-07-31T12:02:45.683Z,11.97
2018-07-31T12:05:15.202Z,7.73
2018-07-31T12:07:44.077Z,9.47
2018-07-31T12:10:12.890Z,9.20
2018-07-31T12:12:43.698Z,11.17
2018-07-31T12:15:12.507Z,11.40
2018-07-31T12:17:41.317Z,8.97
2018-07-31T12:20:10.118Z,11.53
2018-07-31T12:22:38.897Z,9.43
2018-07-31T12:25:07.697Z,12.73
2018-07-31T12:27:36.514Z,21.33
2018-07-31T12:30:09.478Z,10.37
2018-07-31T12:32:38.509Z,12.27
2018-07-31T12:35:07.506Z,8.53
2018-07-31T12:37:36.303Z,9.67
2018-07-31T12:40:06.069Z,10.10
2018-07-31T12:42:41.418Z,9.20
2018-07-31T12:45:10.201Z,9.10
2018-07-31T12:47:38.988Z,8.47
2018-07-31T12:50:07.895Z,10.40
2018-07-31T12:52:36.841Z,11.97
2018-07-31T12:55:05.674Z,15.97
2018-07-31T12:57:34.474Z,9.73
2018-07-31T13:00:04.903Z,10.43
2018-07-31T13:02:34.019Z,11.70
2018-07-31T13:05:02.778Z,7.60
2018-07-31T13:07:31.602Z,13.70
2018-07-31T13:10:00.374Z,12.50
2018-07-31T13:12:29.109Z,9.73
2018-07-31T13:14:58.213Z,13.17
2018-07-31T13:17:27.049Z,10.07
2018-07-31T13:19:55.778Z,13.10
2018-07-31T13:22:24.602Z,10.87
2018-07-31T13:24:53.781Z,20.87
2018-07-31T13:27:22.561Z,11.03
2018-07-31T13:29:51.321Z,15.30
2018-07-31T13:32:20.135Z,11.27
2018-07-31T13:34:48.942Z,18.60
2018-07-31T13:37:17.798Z,13.27
2018-07-31T13:39:46.816Z,10.90
2018-07-31T13:42:15.649Z,10.77
2018-07-31T13:44:44.474Z,10.53
2018-07-31T13:47:13.267Z,9.83
2018-07-31T13:49:42.087Z,15.77
2018-07-31T13:52:10.927Z,13.40
2018-07-31T13:54:39.749Z,12.03
2018-07-31T13:57:08.951Z,10.37
2018-07-31T13:59:38.427Z,11.17
2018-07-31T14:02:09.523Z,11.90
2018-07-31T14:04:38.820Z,8.53
2018-07-31T14:07:07.746Z,10.57
2018-07-31T14:09:36.700Z,7.60
2018-07-31T14:12:05.466Z,7.47
2018-07-31T14:14:34.266Z,9.67
2018-07-31T14:17:03.419Z,7.27
2018-07-31T14:19:32.257Z,6.50
2018-07-31T14:22:01.177Z,8.20
2018-07-31T14:24:30.478Z,22.23
2018-07-31T14:26:59.401Z,7.87
2018-07-31T14:29:28.226Z,8.03
2018-07-31T14:31:57.307Z,11.27
2018-07-31T14:34:26.253Z,7.53
2018-07-31T14:36:55.517Z,8.37
2018-07-31T14:39:24.336Z,7.97
2018-07-31T14:41:55.950Z,8.13
2018-07-31T14:44:31.477Z,7.03
2018-07-31T14:47:00.298Z,8.60
2018-07-31T14:49:35.722Z,7.27
2018-07-31T14:52:04.509Z,10.00
2018-07-31T14:54:33.783Z,7.50
2018-07-31T14:57:02.599Z,12.17
2018-07-31T14:59:31.422Z,15.07
2018-07-31T15:02:00.446Z,7.43
2018-07-31T15:04:29.377Z,6.60
2018-07-31T15:06:59.280Z,11.20
2018-07-31T15:09:28.137Z,12.23
2018-07-31T15:11:57.011Z,12.10
2018-07-31T15:14:25.832Z,15.47
2018-07-31T15:16:54.634Z,10.40
2018-07-31T15:19:23.533Z,8.93
2018-07-31T15:21:52.717Z,9.63
2018-07-31T15:24:21.511Z,11.63
2018-07-31T15:26:50.409Z,9.57
2018-07-31T15:29:19.163Z,14.40
2018-07-31T15:31:48.005Z,12.20
2018-07-31T15:34:16.837Z,11.57
2018-07-31T15:36:45.609Z,9.53
2018-07-31T15:39:14.629Z,9.17
2018-07-31T15:41:44.063Z,9.83
2018-07-31T15:44:12.888Z,7.77
2018-07-31T15:46:42.772Z,6.43
2018-07-31T15:49:11.946Z,7.03
2018-07-31T15:54:26.869Z,8.10
2018-07-31T15:56:56.998Z,7.17
2018-07-31T15:59:25.883Z,10.67
2018-07-31T16:01:54.686Z,8.40
2018-07-31T16:04:26.820Z,14.10
2018-07-31T16:06:56.409Z,10.83
2018-07-31T16:09:25.200Z,8.57
2018-07-31T16:11:54.121Z,9.50
2018-07-31T16:14:22.895Z,9.97
2018-07-31T16:16:51.698Z,10.17
2018-07-31T16:19:20.556Z,7.50
2018-07-31T16:21:49.362Z,7.33
2018-07-31T16:24:18.150Z,7.90
2018-07-31T16:26:46.949Z,8.77
2018-07-31T16:29:17.668Z,9.20
2018-07-31T16:31:46.535Z,9.83
2018-07-31T16:34:15.779Z,8.77
2018-07-31T16:36:44.657Z,8.27
2018-07-31T16:39:13.434Z,8.30
2018-07-31T16:41:42.679Z,7.70
2018-07-31T16:44:11.678Z,11.10
2018-07-31T16:46:41.485Z,13.00
2018-07-31T16:49:10.290Z,11.90
2018-07-31T16:51:40.268Z,16.87
2018-07-31T16:54:09.158Z,14.67
2018-07-31T16:56:37.977Z,15.70
2018-07-31T16:59:06.938Z,13.97
2018-07-31T17:01:35.761Z,12.67
2018-07-31T17:04:04.625Z,10.63
2018-07-31T17:06:33.397Z,13.03
2018-07-31T17:09:04.528Z,18.30
2018-07-31T17:11:33.615Z,14.83
2018-07-31T17:14:02.464Z,17.87
2018-07-31T17:16:31.307Z,15.93
2018-07-31T17:19:00.084Z,14.20
2018-07-31T17:21:28.885Z,15.60
2018-07-31T17:23:57.925Z,12.30
2018-07-31T17:26:26.866Z,14.17
2018-07-31T17:28:55.738Z,17.77
2018-07-31T17:31:24.550Z,14.03
2018-07-31T17:33:53.696Z,15.33
2018-07-31T17:36:22.556Z,20.23
2018-07-31T17:38:51.438Z,18.30
2018-07-31T17:41:20.658Z,12.13
2018-07-31T17:43:49.495Z,14.80
2018-07-31T17:46:18.400Z,14.40
2018-07-31T17:48:47.605Z,14.67
2018-07-31T17:51:16.453Z,15.70
2018-07-31T17:53:46.014Z,9.80
2018-07-31T17:56:15.216Z,11.67
2018-07-31T17:58:44.498Z,11.07
2018-07-31T18:01:13.375Z,15.27
2018-07-31T18:03:42.306Z,20.23
2018-07-31T18:06:11.341Z,18.80
2018-07-31T18:08:40.201Z,18.10
2018-07-31T18:11:08.966Z,19.10
2018-07-31T18:13:37.746Z,22.20
2018-07-31T18:16:06.760Z,13.67
2018-07-31T18:18:35.706Z,14.87
2018-07-31T18:21:04.527Z,14.10
2018-07-31T18:23:33.478Z,16.50
2018-07-31T18:26:02.446Z,15.73
2018-07-31T18:28:31.292Z,18.07
2018-07-31T18:31:00.151Z,9.83
2018-07-31T18:33:28.981Z,11.73
2018-07-31T18:35:57.814Z,13.47
2018-07-31T18:38:26.619Z,14.53
2018-07-31T18:40:55.451Z,17.97
2018-07-31T18:43:24.418Z,13.80
2018-07-31T18:45:53.222Z,15.47
2018-07-31T18:48:28.446Z,17.03
2018-07-31T18:50:57.251Z,12.90
2018-07-31T18:53:26.490Z,16.10
2018-07-31T18:55:55.398Z,25.27
2018-07-31T18:58:24.543Z,20.73
2018-07-31T19:00:53.916Z,19.70
2018-07-31T19:03:23.006Z,20.07
2018-07-31T19:05:51.841Z,15.90
2018-07-31T19:08:20.644Z,24.27
2018-07-31T19:10:49.441Z,25.27
2018-07-31T19:13:18.331Z,22.57
2018-07-31T19:15:47.377Z,17.00
2018-07-31T19:18:16.264Z,16.80
2018-07-31T19:20:45.083Z,22.00
2018-07-31T19:23:13.950Z,18.53
2018-07-31T19:25:42.896Z,17.57
2018-07-31T19:28:11.892Z,20.63
2018-07-31T19:30:40.850Z,17.27
2018-07-31T19:33:09.753Z,16.53
2018-07-31T19:35:38.980Z,14.80
2018-07-31T19:38:08.012Z,20.50
2018-07-31T19:40:36.924Z,23.83
2018-07-31T19:43:07.636Z,23.97
2018-07-31T19:45:36.481Z,16.00
2018-07-31T19:48:05.377Z,32.07
2018-07-31T19:50:34.399Z,24.97
2018-07-31T19:53:03.201Z,19.10
2018-07-31T19:55:32.023Z,35.17
2018-07-31T19:58:00.815Z,31.47
2018-07-31T20:00:29.717Z,24.23
2018-07-31T20:02:58.522Z,23.83
2018-07-31T20:05:27.365Z,29.87
2018-07-31T20:07:56.226Z,24.97
2018-07-31T20:10:25.019Z,34.93
2018-07-31T20:12:54.085Z,38.37
2018-07-31T20:15:22.991Z,24.67
2018-07-31T20:17:50.828Z,16.80
2018-07-31T20:20:19.738Z,13.67
2018-07-31T20:22:48.522Z,15.87
2018-07-31T20:25:17.341Z,12.73
2018-07-31T20:27:46.134Z,14.43
2018-07-31T20:30:14.917Z,14.27
2018-07-31T20:32:44.139Z,14.17
2018-07-31T20:35:12.923Z,14.60
2018-07-31T20:37:41.721Z,15.00
2018-07-31T20:40:10.580Z,14.77
2018-07-31T20:42:39.408Z,16.33
2018-07-31T20:45:08.747Z,16.70
2018-07-31T20:47:37.898Z,23.83
2018-07-31T20:50:07.107Z,16.53
2018-07-31T20:52:42.307Z,16.90
2018-07-31T20:55:11.158Z,20.73
2018-07-31T20:57:39.973Z,20.27
2018-07-31T21:00:09.311Z,25.23
2018-07-31T21:02:38.150Z,12.40
2018-07-31T21:05:07.459Z,12.73
2018-07-31T21:07:36.348Z,13.90
2018-07-31T21:10:05.326Z,15.70
2018-07-31T21:12:34.114Z,17.73
2018-07-31T21:15:03.001Z,18.80
2018-07-31T21:17:31.786Z,21.23
2018-07-31T21:20:00.635Z,17.23
2018-07-31T21:22:29.559Z,19.63
2018-07-31T21:24:58.327Z,20.73
2018-07-31T21:27:27.098Z,15.37
2018-07-31T21:29:55.847Z,16.67
2018-07-31T21:32:24.673Z,20.13
2018-07-31T21:34:53.495Z,16.17
2018-07-31T21:37:22.288Z,11.23
2018-07-31T21:39:51.059Z,15.17
2018-07-31T21:42:19.927Z,13.60
2018-07-31T21:44:49.031Z,15.33
2018-07-31T21:47:17.806Z,15.13
2018-07-31T21:49:46.700Z,15.57
2018-07-31T21:52:15.559Z,16.03
2018-07-31T21:54:44.464Z,24.60
2018-07-31T21:57:13.278Z,22.40
2018-07-31T21:59:42.101Z,18.53
2018-07-31T22:02:11.078Z,15.33
2018-07-31T22:04:39.927Z,14.10
2018-07-31T22:07:09.130Z,18.90
2018-07-31T22:09:43.647Z,19.07
2018-07-31T22:12:12.646Z,17.67
2018-07-31T22:14:42.419Z,17.83
2018-07-31T22:17:11.226Z,17.80
2018-07-31T22:19:41.010Z,16.97
2018-07-31T22:22:09.842Z,14.27
2018-07-31T22:24:38.710Z,18.20
2018-07-31T22:27:07.607Z,16.93
2018-07-31T22:29:36.362Z,20.63
2018-07-31T22:32:05.219Z,17.67
2018-07-31T22:34:33.982Z,16.17
2018-07-31T22:37:02.776Z,17.13
2018-07-31T22:39:31.566Z,15.93
2018-07-31T22:42:00.349Z,20.97
2018-07-31T22:44:29.112Z,17.27
2018-07-31T22:46:57.963Z,16.57
2018-07-31T22:49:26.760Z,16.83
2018-07-31T22:51:55.554Z,13.83
2018-07-31T22:54:24.318Z,14.23
2018-07-31T22:56:53.095Z,18.63
2018-07-31T22:59:21.874Z,14.43
2018-07-31T23:01:50.734Z,14.67
2018-07-31T23:04:19.491Z,14.27
2018-07-31T23:06:48.330Z,11.93
2018-07-31T23:09:17.152Z,12.67
2018-07-31T23:11:46.293Z,10.10
2018-07-31T23:14:15.106Z,14.53
2018-07-31T23:16:44.099Z,10.43
2018-07-31T23:19:12.887Z,16.53
2018-07-31T23:21:41.663Z,11.27
2018-07-31T23:24:10.463Z,20.00
2018-07-31T23:26:39.237Z,11.93
2018-07-31T23:29:08.063Z,12.77
2018-07-31T23:31:36.920Z,12.63
2018-07-31T23:34:05.753Z,13.43
2018-07-31T23:36:34.552Z,25.23
2018-07-31T23:39:04.778Z,14.53
2018-07-31T23:41:33.557Z,13.43
2018-07-31T23:44:02.347Z,15.73
2018-07-31T23:46:31.162Z,23.13
2018-07-31T23:48:59.944Z,12.73
2018-07-31T23:51:28.729Z,14.77
2018-07-31T23:53:57.531Z,21.00
2018-07-31T23:56:26.380Z,11.43
2018-07-31T23:58:55.146Z,10.53
